Terminal Aerodrome Forecast
Issued by NWS North Platte, NE

Home | Current Version | Previous Version | Text Only | Print | Product List | Glossary On
Versions: 1 2 3 4 5 6 7 8 9 10 11 12 13 14 15
000
FTUS43 KLBF 240500
TAFLBF
TAF
KLBF 240528Z 2406/2506 12011KT P6SM FEW250
     FM241700 18014G21KT P6SM SCT250
     FM242300 20011KT P6SM SCT120 BKN200=

USA.gov is the U.S. government's official web portal to all federal, state and local government web resources and services.